sensor_id;sensor_type;location;lat;lon;timestamp;temperature;humidity
12436;DHT22;6282;51.440;6.938;2023-08-06T00:01:19;16.30;99.90
12436;DHT22;6282;51.440;6.938;2023-08-06T00:03:46;16.50;99.90
12436;DHT22;6282;51.440;6.938;2023-08-06T00:06:13;16.60;99.90
12436;DHT22;6282;51.440;6.938;2023-08-06T00:08:40;16.40;99.90
12436;DHT22;6282;51.440;6.938;2023-08-06T00:11:07;16.90;99.90
12436;DHT22;6282;51.440;6.938;2023-08-06T00:13:34;17.10;99.90
12436;DHT22;6282;51.440;6.938;2023-08-06T00:16:09;16.90;99.90
12436;DHT22;6282;51.440;6.938;2023-08-06T00:18:36;16.50;99.90
12436;DHT22;6282;51.440;6.938;2023-08-06T00:21:03;16.40;99.90
12436;DHT22;6282;51.440;6.938;2023-08-06T00:23:31;16.80;99.90
12436;DHT22;6282;51.440;6.938;2023-08-06T00:25:57;17.10;99.90
12436;DHT22;6282;51.440;6.938;2023-08-06T00:28:24;16.80;99.90
12436;DHT22;6282;51.440;6.938;2023-08-06T00:30:53;16.80;99.90
12436;DHT22;6282;51.440;6.938;2023-08-06T00:33:21;16.20;99.90
12436;DHT22;6282;51.440;6.938;2023-08-06T00:38:15;17.00;99.90
12436;DHT22;6282;51.440;6.938;2023-08-06T00:40:41;16.10;99.90
12436;DHT22;6282;51.440;6.938;2023-08-06T00:43:09;16.70;99.90
12436;DHT22;6282;51.440;6.938;2023-08-06T00:45:36;16.10;99.90
12436;DHT22;6282;51.440;6.938;2023-08-06T00:48:05;16.10;99.90
12436;DHT22;6282;51.440;6.938;2023-08-06T00:50:33;16.10;99.90
12436;DHT22;6282;51.440;6.938;2023-08-06T00:53:01;16.60;99.90
12436;DHT22;6282;51.440;6.938;2023-08-06T00:55:29;16.50;99.90
12436;DHT22;6282;51.440;6.938;2023-08-06T00:57:56;16.20;99.90
12436;DHT22;6282;51.440;6.938;2023-08-06T01:00:24;16.80;99.90
12436;DHT22;6282;51.440;6.938;2023-08-06T01:02:51;15.90;99.90
12436;DHT22;6282;51.440;6.938;2023-08-06T01:05:18;16.60;99.90
12436;DHT22;6282;51.440;6.938;2023-08-06T01:07:55;16.20;99.90
12436;DHT22;6282;51.440;6.938;2023-08-06T01:10:40;16.80;99.90
12436;DHT22;6282;51.440;6.938;2023-08-06T01:13:16;16.30;99.90
12436;DHT22;6282;51.440;6.938;2023-08-06T01:15:48;16.30;99.90
12436;DHT22;6282;51.440;6.938;2023-08-06T01:18:16;16.40;99.90
12436;DHT22;6282;51.440;6.938;2023-08-06T01:20:44;16.70;99.90
12436;DHT22;6282;51.440;6.938;2023-08-06T01:23:11;17.80;99.90
12436;DHT22;6282;51.440;6.938;2023-08-06T01:25:43;16.00;99.90
12436;DHT22;6282;51.440;6.938;2023-08-06T01:28:18;16.30;99.90
12436;DHT22;6282;51.440;6.938;2023-08-06T01:30:49;16.90;99.90
12436;DHT22;6282;51.440;6.938;2023-08-06T01:33:21;16.30;99.90
12436;DHT22;6282;51.440;6.938;2023-08-06T01:35:50;16.50;99.90
12436;DHT22;6282;51.440;6.938;2023-08-06T01:38:18;16.50;99.90
12436;DHT22;6282;51.440;6.938;2023-08-06T01:40:44;16.90;99.90
12436;DHT22;6282;51.440;6.938;2023-08-06T01:43:11;16.80;99.90
12436;DHT22;6282;51.440;6.938;2023-08-06T01:45:38;16.60;99.90
12436;DHT22;6282;51.440;6.938;2023-08-06T01:48:05;16.40;99.90
12436;DHT22;6282;51.440;6.938;2023-08-06T01:50:31;16.80;99.90
12436;DHT22;6282;51.440;6.938;2023-08-06T01:52:59;16.20;99.90
12436;DHT22;6282;51.440;6.938;2023-08-06T01:55:26;16.40;99.90
12436;DHT22;6282;51.440;6.938;2023-08-06T02:00:20;16.60;99.90
12436;DHT22;6282;51.440;6.938;2023-08-06T02:07:41;16.50;99.90
12436;DHT22;6282;51.440;6.938;2023-08-06T02:10:09;16.30;99.90
12436;DHT22;6282;51.440;6.938;2023-08-06T02:12:36;15.90;99.90
12436;DHT22;6282;51.440;6.938;2023-08-06T02:15:04;16.40;99.90
12436;DHT22;6282;51.440;6.938;2023-08-06T02:17:31;16.40;99.90
12436;DHT22;6282;51.440;6.938;2023-08-06T02:19:58;16.00;99.90
12436;DHT22;6282;51.440;6.938;2023-08-06T02:27:20;16.10;99.90
12436;DHT22;6282;51.440;6.938;2023-08-06T02:29:47;15.90;99.90
12436;DHT22;6282;51.440;6.938;2023-08-06T02:34:41;16.10;99.90
12436;DHT22;6282;51.440;6.938;2023-08-06T02:37:07;16.80;99.90
12436;DHT22;6282;51.440;6.938;2023-08-06T02:39:34;16.30;99.90
12436;DHT22;6282;51.440;6.938;2023-08-06T02:42:05;16.60;99.90
12436;DHT22;6282;51.440;6.938;2023-08-06T02:44:34;16.20;99.90
12436;DHT22;6282;51.440;6.938;2023-08-06T02:47:00;16.30;99.90
12436;DHT22;6282;51.440;6.938;2023-08-06T02:49:27;16.20;99.90
12436;DHT22;6282;51.440;6.938;2023-08-06T02:51:54;16.80;99.90
12436;DHT22;6282;51.440;6.938;2023-08-06T03:01:44;16.30;99.90
12436;DHT22;6282;51.440;6.938;2023-08-06T03:11:32;16.00;99.90
12436;DHT22;6282;51.440;6.938;2023-08-06T03:13:59;15.60;99.90
12436;DHT22;6282;51.440;6.938;2023-08-06T03:16:25;15.90;99.90
12436;DHT22;6282;51.440;6.938;2023-08-06T03:18:54;16.30;99.90
12436;DHT22;6282;51.440;6.938;2023-08-06T03:21:20;15.80;99.90
12436;DHT22;6282;51.440;6.938;2023-08-06T03:23:47;16.20;99.90
12436;DHT22;6282;51.440;6.938;2023-08-06T03:26:14;16.20;99.90
12436;DHT22;6282;51.440;6.938;2023-08-06T03:33:36;16.20;99.90
12436;DHT22;6282;51.440;6.938;2023-08-06T03:36:04;15.90;99.90
12436;DHT22;6282;51.440;6.938;2023-08-06T03:40:58;16.30;99.90
12436;DHT22;6282;51.440;6.938;2023-08-06T03:43:25;16.00;99.90
12436;DHT22;6282;51.440;6.938;2023-08-06T03:45:52;16.60;99.90
12436;DHT22;6282;51.440;6.938;2023-08-06T03:48:18;15.90;99.90
12436;DHT22;6282;51.440;6.938;2023-08-06T03:50:45;16.40;99.90
12436;DHT22;6282;51.440;6.938;2023-08-06T03:53:13;16.60;99.90
12436;DHT22;6282;51.440;6.938;2023-08-06T03:55:40;16.60;99.90
12436;DHT22;6282;51.440;6.938;2023-08-06T04:00:34;17.60;99.90
12436;DHT22;6282;51.440;6.938;2023-08-06T04:03:01;16.00;99.90
12436;DHT22;6282;51.440;6.938;2023-08-06T04:05:30;16.20;99.90
12436;DHT22;6282;51.440;6.938;2023-08-06T04:07:57;16.10;99.90
12436;DHT22;6282;51.440;6.938;2023-08-06T04:10:26;15.80;99.90
12436;DHT22;6282;51.440;6.938;2023-08-06T04:12:53;16.00;99.90
12436;DHT22;6282;51.440;6.938;2023-08-06T04:15:20;16.40;99.90
12436;DHT22;6282;51.440;6.938;2023-08-06T04:17:47;16.20;99.90
12436;DHT22;6282;51.440;6.938;2023-08-06T04:20:13;16.60;99.90
12436;DHT22;6282;51.440;6.938;2023-08-06T04:22:40;15.60;99.90
12436;DHT22;6282;51.440;6.938;2023-08-06T04:25:07;15.90;99.90
12436;DHT22;6282;51.440;6.938;2023-08-06T04:27:36;15.80;99.90
12436;DHT22;6282;51.440;6.938;2023-08-06T04:30:07;16.00;99.90
12436;DHT22;6282;51.440;6.938;2023-08-06T04:35:01;15.80;99.90
12436;DHT22;6282;51.440;6.938;2023-08-06T04:37:28;16.60;99.90
12436;DHT22;6282;51.440;6.938;2023-08-06T04:39:55;16.00;99.90
12436;DHT22;6282;51.440;6.938;2023-08-06T04:42:21;16.50;99.90
12436;DHT22;6282;51.440;6.938;2023-08-06T04:44:50;15.90;99.90
12436;DHT22;6282;51.440;6.938;2023-08-06T04:47:17;16.00;99.90
12436;DHT22;6282;51.440;6.938;2023-08-06T04:49:43;16.90;99.90
12436;DHT22;6282;51.440;6.938;2023-08-06T04:54:37;16.10;99.90
12436;DHT22;6282;51.440;6.938;2023-08-06T04:57:05;16.90;99.90
12436;DHT22;6282;51.440;6.938;2023-08-06T04:59:31;16.10;99.90
12436;DHT22;6282;51.440;6.938;2023-08-06T05:01:59;16.10;99.90
12436;DHT22;6282;51.440;6.938;2023-08-06T05:04:27;16.80;99.90
12436;DHT22;6282;51.440;6.938;2023-08-06T05:06:54;16.30;99.90
12436;DHT22;6282;51.440;6.938;2023-08-06T05:09:20;16.20;99.90
12436;DHT22;6282;51.440;6.938;2023-08-06T05:11:47;16.40;99.90
12436;DHT22;6282;51.440;6.938;2023-08-06T05:16:41;17.00;99.90
12436;DHT22;6282;51.440;6.938;2023-08-06T05:19:09;16.40;99.90
12436;DHT22;6282;51.440;6.938;2023-08-06T05:21:36;17.10;99.90
12436;DHT22;6282;51.440;6.938;2023-08-06T05:24:03;16.60;99.90
12436;DHT22;6282;51.440;6.938;2023-08-06T05:26:30;17.40;99.90
12436;DHT22;6282;51.440;6.938;2023-08-06T05:31:24;17.40;99.90
12436;DHT22;6282;51.440;6.938;2023-08-06T05:33:51;17.50;99.90
12436;DHT22;6282;51.440;6.938;2023-08-06T05:36:19;17.30;99.90
12436;DHT22;6282;51.440;6.938;2023-08-06T05:41:13;17.50;99.90
12436;DHT22;6282;51.440;6.938;2023-08-06T05:43:40;17.30;99.90
12436;DHT22;6282;51.440;6.938;2023-08-06T05:46:07;17.40;99.90
12436;DHT22;6282;51.440;6.938;2023-08-06T05:48:34;17.10;99.90
12436;DHT22;6282;51.440;6.938;2023-08-06T05:51:01;17.70;99.90
12436;DHT22;6282;51.440;6.938;2023-08-06T05:53:29;17.90;99.90
12436;DHT22;6282;51.440;6.938;2023-08-06T05:55:56;17.40;99.90
12436;DHT22;6282;51.440;6.938;2023-08-06T05:58:23;17.10;99.90
12436;DHT22;6282;51.440;6.938;2023-08-06T06:00:51;16.90;99.90
12436;DHT22;6282;51.440;6.938;2023-08-06T06:03:18;17.30;99.90
12436;DHT22;6282;51.440;6.938;2023-08-06T06:05:45;16.90;99.90
12436;DHT22;6282;51.440;6.938;2023-08-06T06:08:12;16.70;99.90
12436;DHT22;6282;51.440;6.938;2023-08-06T06:10:40;17.40;99.90
12436;DHT22;6282;51.440;6.938;2023-08-06T06:13:07;17.20;99.90
12436;DHT22;6282;51.440;6.938;2023-08-06T06:15:34;17.50;99.90
12436;DHT22;6282;51.440;6.938;2023-08-06T06:18:01;18.00;99.90
12436;DHT22;6282;51.440;6.938;2023-08-06T06:20:28;18.10;99.90
12436;DHT22;6282;51.440;6.938;2023-08-06T06:25:22;17.80;99.90
12436;DHT22;6282;51.440;6.938;2023-08-06T06:27:50;18.40;99.90
12436;DHT22;6282;51.440;6.938;2023-08-06T06:32:44;17.80;99.90
12436;DHT22;6282;51.440;6.938;2023-08-06T06:35:10;18.30;99.90
12436;DHT22;6282;51.440;6.938;2023-08-06T06:37:37;18.30;99.90
12436;DHT22;6282;51.440;6.938;2023-08-06T06:40:05;18.20;99.90
12436;DHT22;6282;51.440;6.938;2023-08-06T06:42:32;18.60;99.90
12436;DHT22;6282;51.440;6.938;2023-08-06T06:45:00;18.30;99.90
12436;DHT22;6282;51.440;6.938;2023-08-06T06:47:27;18.30;99.90
12436;DHT22;6282;51.440;6.938;2023-08-06T06:52:21;18.60;99.90
12436;DHT22;6282;51.440;6.938;2023-08-06T06:54:48;18.50;99.90
12436;DHT22;6282;51.440;6.938;2023-08-06T06:57:15;18.80;99.90
12436;DHT22;6282;51.440;6.938;2023-08-06T06:59:42;18.40;99.90
12436;DHT22;6282;51.440;6.938;2023-08-06T07:02:10;18.80;99.90
12436;DHT22;6282;51.440;6.938;2023-08-06T07:04:37;18.80;99.90
12436;DHT22;6282;51.440;6.938;2023-08-06T07:07:04;19.10;99.90
12436;DHT22;6282;51.440;6.938;2023-08-06T07:09:31;18.90;99.90
12436;DHT22;6282;51.440;6.938;2023-08-06T07:11:57;19.60;99.90
12436;DHT22;6282;51.440;6.938;2023-08-06T07:14:25;20.00;99.90
12436;DHT22;6282;51.440;6.938;2023-08-06T07:16:52;19.80;99.90
12436;DHT22;6282;51.440;6.938;2023-08-06T07:19:20;19.20;99.90
12436;DHT22;6282;51.440;6.938;2023-08-06T07:21:47;20.10;99.90
12436;DHT22;6282;51.440;6.938;2023-08-06T07:24:13;19.40;99.90
12436;DHT22;6282;51.440;6.938;2023-08-06T07:26:40;20.20;99.90
12436;DHT22;6282;51.440;6.938;2023-08-06T07:31:34;20.20;99.90
12436;DHT22;6282;51.440;6.938;2023-08-06T07:34:01;20.60;99.90
12436;DHT22;6282;51.440;6.938;2023-08-06T07:36:29;20.50;99.90
12436;DHT22;6282;51.440;6.938;2023-08-06T07:38:57;21.50;99.90
12436;DHT22;6282;51.440;6.938;2023-08-06T07:41:24;20.60;99.90
12436;DHT22;6282;51.440;6.938;2023-08-06T07:43:51;21.30;99.90
12436;DHT22;6282;51.440;6.938;2023-08-06T07:46:17;21.00;99.90
12436;DHT22;6282;51.440;6.938;2023-08-06T07:48:44;21.10;99.90
12436;DHT22;6282;51.440;6.938;2023-08-06T07:51:11;21.20;99.90
12436;DHT22;6282;51.440;6.938;2023-08-06T07:53:39;20.50;99.90
12436;DHT22;6282;51.440;6.938;2023-08-06T07:56:06;20.40;99.90
12436;DHT22;6282;51.440;6.938;2023-08-06T07:58:33;20.30;99.90
12436;DHT22;6282;51.440;6.938;2023-08-06T08:01:00;21.40;99.90
12436;DHT22;6282;51.440;6.938;2023-08-06T08:03:27;20.80;99.90
12436;DHT22;6282;51.440;6.938;2023-08-06T08:05:55;21.00;99.90
12436;DHT22;6282;51.440;6.938;2023-08-06T08:08:24;20.70;99.90
12436;DHT22;6282;51.440;6.938;2023-08-06T08:10:52;21.10;99.90
12436;DHT22;6282;51.440;6.938;2023-08-06T08:13:20;21.00;99.90
12436;DHT22;6282;51.440;6.938;2023-08-06T08:15:47;20.80;99.90
12436;DHT22;6282;51.440;6.938;2023-08-06T08:18:14;20.70;99.90
12436;DHT22;6282;51.440;6.938;2023-08-06T08:20:41;20.70;99.90
12436;DHT22;6282;51.440;6.938;2023-08-06T08:23:07;20.90;99.90
12436;DHT22;6282;51.440;6.938;2023-08-06T08:25:35;21.00;99.90
12436;DHT22;6282;51.440;6.938;2023-08-06T08:28:03;21.10;99.90
12436;DHT22;6282;51.440;6.938;2023-08-06T08:30:30;21.00;99.90
12436;DHT22;6282;51.440;6.938;2023-08-06T08:32:57;21.60;99.90
12436;DHT22;6282;51.440;6.938;2023-08-06T08:35:24;22.50;99.90
12436;DHT22;6282;51.440;6.938;2023-08-06T08:40:20;24.20;99.90
12436;DHT22;6282;51.440;6.938;2023-08-06T08:42:50;24.20;99.90
12436;DHT22;6282;51.440;6.938;2023-08-06T08:45:20;24.50;99.90
12436;DHT22;6282;51.440;6.938;2023-08-06T08:47:49;24.90;99.90
12436;DHT22;6282;51.440;6.938;2023-08-06T08:50:17;25.60;99.90
12436;DHT22;6282;51.440;6.938;2023-08-06T08:52:45;26.70;99.90
12436;DHT22;6282;51.440;6.938;2023-08-06T08:55:15;26.90;99.90
12436;DHT22;6282;51.440;6.938;2023-08-06T08:57:42;26.20;99.90
12436;DHT22;6282;51.440;6.938;2023-08-06T09:00:10;25.90;99.90
12436;DHT22;6282;51.440;6.938;2023-08-06T09:02:39;25.10;99.90
12436;DHT22;6282;51.440;6.938;2023-08-06T09:05:07;25.00;99.90
12436;DHT22;6282;51.440;6.938;2023-08-06T09:07:38;23.90;99.90
12436;DHT22;6282;51.440;6.938;2023-08-06T09:10:10;23.10;99.90
12436;DHT22;6282;51.440;6.938;2023-08-06T09:12:39;22.50;99.90
12436;DHT22;6282;51.440;6.938;2023-08-06T09:15:06;22.60;99.90
12436;DHT22;6282;51.440;6.938;2023-08-06T09:17:33;21.90;99.90
12436;DHT22;6282;51.440;6.938;2023-08-06T09:20:11;21.60;99.90
12436;DHT22;6282;51.440;6.938;2023-08-06T09:22:39;21.40;99.90
12436;DHT22;6282;51.440;6.938;2023-08-06T09:25:07;20.70;99.90
12436;DHT22;6282;51.440;6.938;2023-08-06T09:27:35;20.10;99.90
12436;DHT22;6282;51.440;6.938;2023-08-06T09:30:04;21.00;99.90
12436;DHT22;6282;51.440;6.938;2023-08-06T09:32:44;19.80;99.90
12436;DHT22;6282;51.440;6.938;2023-08-06T09:38:18;19.50;99.90
12436;DHT22;6282;51.440;6.938;2023-08-06T09:40:45;19.00;99.90
12436;DHT22;6282;51.440;6.938;2023-08-06T09:43:12;19.00;99.90
12436;DHT22;6282;51.440;6.938;2023-08-06T09:48:07;19.20;99.90
12436;DHT22;6282;51.440;6.938;2023-08-06T09:50:36;19.40;99.90
12436;DHT22;6282;51.440;6.938;2023-08-06T09:53:04;19.30;99.90
12436;DHT22;6282;51.440;6.938;2023-08-06T09:55:33;19.60;99.90
12436;DHT22;6282;51.440;6.938;2023-08-06T09:58:00;19.40;99.90
12436;DHT22;6282;51.440;6.938;2023-08-06T10:00:27;19.50;99.90
12436;DHT22;6282;51.440;6.938;2023-08-06T10:03:00;20.20;99.90
12436;DHT22;6282;51.440;6.938;2023-08-06T10:05:26;20.10;99.90
12436;DHT22;6282;51.440;6.938;2023-08-06T10:10:21;19.80;99.90
12436;DHT22;6282;51.440;6.938;2023-08-06T10:12:52;20.40;99.90
12436;DHT22;6282;51.440;6.938;2023-08-06T10:15:24;21.00;99.90
12436;DHT22;6282;51.440;6.938;2023-08-06T10:17:54;21.00;99.90
12436;DHT22;6282;51.440;6.938;2023-08-06T10:20:22;22.10;99.90
12436;DHT22;6282;51.440;6.938;2023-08-06T10:23:00;21.60;99.90
12436;DHT22;6282;51.440;6.938;2023-08-06T10:25:30;21.30;99.90
12436;DHT22;6282;51.440;6.938;2023-08-06T10:28:00;20.60;99.90
12436;DHT22;6282;51.440;6.938;2023-08-06T10:30:30;20.70;99.90
12436;DHT22;6282;51.440;6.938;2023-08-06T10:32:58;20.30;99.90
12436;DHT22;6282;51.440;6.938;2023-08-06T10:35:31;20.50;99.90
12436;DHT22;6282;51.440;6.938;2023-08-06T10:37:59;20.20;99.90
12436;DHT22;6282;51.440;6.938;2023-08-06T10:40:26;21.00;99.90
12436;DHT22;6282;51.440;6.938;2023-08-06T10:42:55;20.20;99.90
12436;DHT22;6282;51.440;6.938;2023-08-06T10:45:23;20.80;99.90
12436;DHT22;6282;51.440;6.938;2023-08-06T10:47:54;20.20;99.90
12436;DHT22;6282;51.440;6.938;2023-08-06T10:50:22;20.30;99.90
12436;DHT22;6282;51.440;6.938;2023-08-06T10:52:48;20.30;99.90
12436;DHT22;6282;51.440;6.938;2023-08-06T10:55:22;20.40;99.90
12436;DHT22;6282;51.440;6.938;2023-08-06T10:57:50;21.80;99.90
12436;DHT22;6282;51.440;6.938;2023-08-06T11:00:17;21.50;99.90
12436;DHT22;6282;51.440;6.938;2023-08-06T11:02:47;21.10;99.90
12436;DHT22;6282;51.440;6.938;2023-08-06T11:05:13;21.40;99.90
12436;DHT22;6282;51.440;6.938;2023-08-06T11:10:09;21.20;99.90
12436;DHT22;6282;51.440;6.938;2023-08-06T11:12:36;20.50;99.90
12436;DHT22;6282;51.440;6.938;2023-08-06T11:15:04;20.10;99.90
12436;DHT22;6282;51.440;6.938;2023-08-06T11:17:32;20.20;99.90
12436;DHT22;6282;51.440;6.938;2023-08-06T11:20:00;19.60;99.90
12436;DHT22;6282;51.440;6.938;2023-08-06T11:22:28;19.00;99.90
12436;DHT22;6282;51.440;6.938;2023-08-06T11:24:55;18.60;99.90
12436;DHT22;6282;51.440;6.938;2023-08-06T11:27:22;18.20;99.90
12436;DHT22;6282;51.440;6.938;2023-08-06T11:29:49;18.00;99.90
12436;DHT22;6282;51.440;6.938;2023-08-06T11:34:43;17.60;99.90
12436;DHT22;6282;51.440;6.938;2023-08-06T11:37:11;16.90;99.90
12436;DHT22;6282;51.440;6.938;2023-08-06T11:39:38;17.00;99.90
12436;DHT22;6282;51.440;6.938;2023-08-06T11:42:11;17.20;99.90
12436;DHT22;6282;51.440;6.938;2023-08-06T11:44:38;16.60;99.90
12436;DHT22;6282;51.440;6.938;2023-08-06T11:47:13;16.80;99.90
12436;DHT22;6282;51.440;6.938;2023-08-06T11:49:42;16.90;99.90
12436;DHT22;6282;51.440;6.938;2023-08-06T11:52:14;16.80;99.90
12436;DHT22;6282;51.440;6.938;2023-08-06T11:54:44;16.90;99.90
12436;DHT22;6282;51.440;6.938;2023-08-06T11:57:11;16.70;99.90
12436;DHT22;6282;51.440;6.938;2023-08-06T11:59:39;16.70;99.90
12436;DHT22;6282;51.440;6.938;2023-08-06T12:02:09;16.10;99.90
12436;DHT22;6282;51.440;6.938;2023-08-06T12:04:58;16.00;99.90
12436;DHT22;6282;51.440;6.938;2023-08-06T12:07:31;16.00;99.90
12436;DHT22;6282;51.440;6.938;2023-08-06T12:12:25;16.40;99.90
12436;DHT22;6282;51.440;6.938;2023-08-06T12:14:52;15.90;99.90
12436;DHT22;6282;51.440;6.938;2023-08-06T12:19:46;15.40;99.90
12436;DHT22;6282;51.440;6.938;2023-08-06T12:24:43;16.10;99.90
12436;DHT22;6282;51.440;6.938;2023-08-06T12:27:10;15.60;99.90
12436;DHT22;6282;51.440;6.938;2023-08-06T12:29:40;15.80;99.90
12436;DHT22;6282;51.440;6.938;2023-08-06T12:34:34;15.90;99.90
12436;DHT22;6282;51.440;6.938;2023-08-06T12:37:02;16.40;99.90
12436;DHT22;6282;51.440;6.938;2023-08-06T12:39:28;16.00;99.90
12436;DHT22;6282;51.440;6.938;2023-08-06T12:41:58;16.80;99.90
12436;DHT22;6282;51.440;6.938;2023-08-06T12:44:25;16.30;99.90
12436;DHT22;6282;51.440;6.938;2023-08-06T12:56:41;16.40;99.90
12436;DHT22;6282;51.440;6.938;2023-08-06T12:59:09;16.20;99.90
12436;DHT22;6282;51.440;6.938;2023-08-06T13:01:37;16.50;99.90
12436;DHT22;6282;51.440;6.938;2023-08-06T13:04:04;16.20;99.90
12436;DHT22;6282;51.440;6.938;2023-08-06T13:06:31;16.40;99.90
12436;DHT22;6282;51.440;6.938;2023-08-06T13:09:01;16.30;99.90
12436;DHT22;6282;51.440;6.938;2023-08-06T13:11:28;16.50;99.90
12436;DHT22;6282;51.440;6.938;2023-08-06T13:13:58;16.60;99.90
12436;DHT22;6282;51.440;6.938;2023-08-06T13:16:26;16.40;99.90
12436;DHT22;6282;51.440;6.938;2023-08-06T13:18:54;16.10;99.90
12436;DHT22;6282;51.440;6.938;2023-08-06T13:21:21;16.30;99.90
12436;DHT22;6282;51.440;6.938;2023-08-06T13:23:48;16.50;99.90
12436;DHT22;6282;51.440;6.938;2023-08-06T13:28:42;16.20;99.90
12436;DHT22;6282;51.440;6.938;2023-08-06T13:31:09;16.80;99.90
12436;DHT22;6282;51.440;6.938;2023-08-06T13:33:38;16.50;99.90
12436;DHT22;6282;51.440;6.938;2023-08-06T13:36:04;16.70;99.90
12436;DHT22;6282;51.440;6.938;2023-08-06T13:38:31;16.20;99.90
12436;DHT22;6282;51.440;6.938;2023-08-06T13:40:58;16.70;99.90
12436;DHT22;6282;51.440;6.938;2023-08-06T13:43:25;16.70;99.90
12436;DHT22;6282;51.440;6.938;2023-08-06T13:45:52;16.60;99.90
12436;DHT22;6282;51.440;6.938;2023-08-06T13:50:47;16.80;99.90
12436;DHT22;6282;51.440;6.938;2023-08-06T13:55:41;17.00;99.90
12436;DHT22;6282;51.440;6.938;2023-08-06T13:58:08;17.50;99.90
12436;DHT22;6282;51.440;6.938;2023-08-06T14:00:35;17.10;99.90
12436;DHT22;6282;51.440;6.938;2023-08-06T14:03:02;16.70;99.90
12436;DHT22;6282;51.440;6.938;2023-08-06T14:05:29;16.80;99.90
12436;DHT22;6282;51.440;6.938;2023-08-06T14:07:57;16.80;99.90
12436;DHT22;6282;51.440;6.938;2023-08-06T14:12:51;17.40;99.90
12436;DHT22;6282;51.440;6.938;2023-08-06T14:15:18;17.50;99.90
12436;DHT22;6282;51.440;6.938;2023-08-06T14:17:44;17.70;99.90
12436;DHT22;6282;51.440;6.938;2023-08-06T14:20:11;16.60;99.90
12436;DHT22;6282;51.440;6.938;2023-08-06T14:22:38;17.00;99.90
12436;DHT22;6282;51.440;6.938;2023-08-06T14:25:07;16.90;99.90
12436;DHT22;6282;51.440;6.938;2023-08-06T14:27:34;17.20;99.90
12436;DHT22;6282;51.440;6.938;2023-08-06T14:30:01;16.90;99.90
12436;DHT22;6282;51.440;6.938;2023-08-06T14:34:56;17.30;99.90
12436;DHT22;6282;51.440;6.938;2023-08-06T14:37:23;16.70;99.90
12436;DHT22;6282;51.440;6.938;2023-08-06T14:39:50;17.60;99.90
12436;DHT22;6282;51.440;6.938;2023-08-06T14:42:18;17.30;99.90
12436;DHT22;6282;51.440;6.938;2023-08-06T14:44:45;17.20;99.90
12436;DHT22;6282;51.440;6.938;2023-08-06T14:47:12;17.20;99.90
12436;DHT22;6282;51.440;6.938;2023-08-06T14:52:06;17.00;99.90
12436;DHT22;6282;51.440;6.938;2023-08-06T14:54:33;16.90;99.90
12436;DHT22;6282;51.440;6.938;2023-08-06T14:57:00;16.80;99.90
12436;DHT22;6282;51.440;6.938;2023-08-06T14:59:28;17.20;99.90
12436;DHT22;6282;51.440;6.938;2023-08-06T15:01:55;17.50;99.90
12436;DHT22;6282;51.440;6.938;2023-08-06T15:06:49;16.90;99.90
12436;DHT22;6282;51.440;6.938;2023-08-06T15:09:16;17.50;99.90
12436;DHT22;6282;51.440;6.938;2023-08-06T15:11:43;17.30;99.90
12436;DHT22;6282;51.440;6.938;2023-08-06T15:14:10;17.20;99.90
12436;DHT22;6282;51.440;6.938;2023-08-06T15:16:38;17.40;99.90
12436;DHT22;6282;51.440;6.938;2023-08-06T15:21:32;17.10;99.90
12436;DHT22;6282;51.440;6.938;2023-08-06T15:23:59;17.60;99.90
12436;DHT22;6282;51.440;6.938;2023-08-06T15:28:53;17.10;99.90
12436;DHT22;6282;51.440;6.938;2023-08-06T15:31:20;17.40;99.90
12436;DHT22;6282;51.440;6.938;2023-08-06T15:33:49;17.10;99.90
12436;DHT22;6282;51.440;6.938;2023-08-06T15:36:15;17.40;99.90
12436;DHT22;6282;51.440;6.938;2023-08-06T15:38:42;16.70;99.90
12436;DHT22;6282;51.440;6.938;2023-08-06T15:43:36;16.60;99.90
12436;DHT22;6282;51.440;6.938;2023-08-06T15:46:03;16.70;99.90
12436;DHT22;6282;51.440;6.938;2023-08-06T15:48:30;17.00;99.90
12436;DHT22;6282;51.440;6.938;2023-08-06T15:50:58;17.50;99.90
12436;DHT22;6282;51.440;6.938;2023-08-06T15:55:52;16.70;99.90
12436;DHT22;6282;51.440;6.938;2023-08-06T15:58:18;16.70;99.90
12436;DHT22;6282;51.440;6.938;2023-08-06T16:00:45;17.10;99.90
12436;DHT22;6282;51.440;6.938;2023-08-06T16:05:39;16.70;99.90
12436;DHT22;6282;51.440;6.938;2023-08-06T16:08:07;16.20;99.90
12436;DHT22;6282;51.440;6.938;2023-08-06T16:10:34;16.60;99.90
12436;DHT22;6282;51.440;6.938;2023-08-06T16:13:01;16.70;99.90
12436;DHT22;6282;51.440;6.938;2023-08-06T16:15:28;16.90;99.90
12436;DHT22;6282;51.440;6.938;2023-08-06T16:17:56;17.00;99.90
12436;DHT22;6282;51.440;6.938;2023-08-06T16:20:23;16.30;99.90
12436;DHT22;6282;51.440;6.938;2023-08-06T16:22:49;16.50;99.90
12436;DHT22;6282;51.440;6.938;2023-08-06T16:25:18;16.60;99.90
12436;DHT22;6282;51.440;6.938;2023-08-06T16:27:44;17.00;99.90
12436;DHT22;6282;51.440;6.938;2023-08-06T16:30:11;17.10;99.90
12436;DHT22;6282;51.440;6.938;2023-08-06T16:35:08;16.70;99.90
12436;DHT22;6282;51.440;6.938;2023-08-06T16:37:35;16.90;99.90
12436;DHT22;6282;51.440;6.938;2023-08-06T16:40:05;16.80;99.90
12436;DHT22;6282;51.440;6.938;2023-08-06T16:42:33;16.60;99.90
12436;DHT22;6282;51.440;6.938;2023-08-06T16:45:00;16.50;99.90
12436;DHT22;6282;51.440;6.938;2023-08-06T16:47:28;16.50;99.90
12436;DHT22;6282;51.440;6.938;2023-08-06T16:49:55;16.70;99.90
12436;DHT22;6282;51.440;6.938;2023-08-06T16:52:21;16.60;99.90
12436;DHT22;6282;51.440;6.938;2023-08-06T16:54:48;16.50;99.90
12436;DHT22;6282;51.440;6.938;2023-08-06T16:57:16;16.40;99.90
12436;DHT22;6282;51.440;6.938;2023-08-06T16:59:44;16.40;99.90
12436;DHT22;6282;51.440;6.938;2023-08-06T17:02:11;16.40;99.90
12436;DHT22;6282;51.440;6.938;2023-08-06T17:04:38;16.40;99.90
12436;DHT22;6282;51.440;6.938;2023-08-06T17:07:05;16.30;99.90
12436;DHT22;6282;51.440;6.938;2023-08-06T17:09:32;16.20;99.90
12436;DHT22;6282;51.440;6.938;2023-08-06T17:11:58;16.20;99.90
12436;DHT22;6282;51.440;6.938;2023-08-06T17:14:25;16.00;99.90
12436;DHT22;6282;51.440;6.938;2023-08-06T17:16:53;16.10;99.90
12436;DHT22;6282;51.440;6.938;2023-08-06T17:19:20;16.80;99.90
12436;DHT22;6282;51.440;6.938;2023-08-06T17:21:47;16.10;99.90
12436;DHT22;6282;51.440;6.938;2023-08-06T17:24:14;15.80;99.90
12436;DHT22;6282;51.440;6.938;2023-08-06T17:26:41;15.70;99.90
12436;DHT22;6282;51.440;6.938;2023-08-06T17:29:07;16.00;99.90
12436;DHT22;6282;51.440;6.938;2023-08-06T17:31:34;16.20;99.90
12436;DHT22;6282;51.440;6.938;2023-08-06T17:34:02;16.20;99.90
12436;DHT22;6282;51.440;6.938;2023-08-06T17:36:29;15.30;99.90
12436;DHT22;6282;51.440;6.938;2023-08-06T17:41:24;15.90;99.90
12436;DHT22;6282;51.440;6.938;2023-08-06T17:43:52;15.80;99.90
12436;DHT22;6282;51.440;6.938;2023-08-06T17:48:46;15.90;99.90
12436;DHT22;6282;51.440;6.938;2023-08-06T17:51:14;15.50;99.90
12436;DHT22;6282;51.440;6.938;2023-08-06T17:53:40;15.40;99.90
12436;DHT22;6282;51.440;6.938;2023-08-06T18:05:56;15.40;99.90
12436;DHT22;6282;51.440;6.938;2023-08-06T18:08:26;15.40;99.90
12436;DHT22;6282;51.440;6.938;2023-08-06T18:10:53;15.30;99.90
12436;DHT22;6282;51.440;6.938;2023-08-06T18:13:20;15.50;99.90